createdAt,value
2018-09-11T00:01:43.271Z,3.05
2018-09-11T00:04:11.624Z,3.50
2018-09-11T00:06:39.964Z,3.30
2018-09-11T00:09:10.460Z,2.87
2018-09-11T00:11:38.757Z,3.40
2018-09-11T00:14:07.127Z,3.37
2018-09-11T00:16:35.549Z,3.87
2018-09-11T00:19:03.940Z,3.22
2018-09-11T00:21:32.310Z,3.30
2018-09-11T00:24:00.738Z,3.37
2018-09-11T00:26:29.063Z,3.65
2018-09-11T00:28:57.355Z,3.40
2018-09-11T00:31:25.685Z,3.30
2018-09-11T00:33:54.043Z,4.00
2018-09-11T00:36:22.381Z,3.70
2018-09-11T00:38:50.763Z,3.90
2018-09-11T00:41:19.118Z,3.85
2018-09-11T00:43:47.428Z,3.47
2018-09-11T00:46:15.780Z,3.72
2018-09-11T00:48:44.061Z,4.60
2018-09-11T00:51:12.359Z,4.08
2018-09-11T00:53:40.650Z,3.40
2018-09-11T00:56:08.967Z,3.70
2018-09-11T00:58:37.303Z,4.42
2018-09-11T01:01:05.708Z,3.92
2018-09-11T01:03:34.036Z,3.45
2018-09-11T01:06:02.346Z,4.33
2018-09-11T01:08:30.626Z,3.67
2018-09-11T01:10:58.912Z,4.47
2018-09-11T01:13:27.299Z,3.80
2018-09-11T01:15:55.631Z,4.65
2018-09-11T01:18:23.931Z,4.03
2018-09-11T01:20:52.354Z,4.60
2018-09-11T01:23:20.640Z,4.47
2018-09-11T01:25:48.941Z,4.40
2018-09-11T01:28:17.250Z,4.20
2018-09-11T01:30:45.591Z,4.07
2018-09-11T01:33:13.871Z,3.95
2018-09-11T01:35:42.176Z,4.12
2018-09-11T01:38:10.487Z,3.87
2018-09-11T01:40:38.772Z,4.58
2018-09-11T01:43:07.042Z,4.10
2018-09-11T01:45:35.407Z,4.33
2018-09-11T01:48:03.729Z,4.20
2018-09-11T01:50:32.041Z,5.10
2018-09-11T01:53:01.380Z,4.00
2018-09-11T01:55:29.713Z,4.42
2018-09-11T01:57:58.093Z,4.53
2018-09-11T02:00:26.421Z,4.45
2018-09-11T02:02:54.802Z,4.83
2018-09-11T02:05:23.142Z,3.80
2018-09-11T02:07:51.500Z,4.80
2018-09-11T02:10:19.843Z,4.67
2018-09-11T02:12:48.220Z,4.87
2018-09-11T02:15:16.661Z,5.08
2018-09-11T02:17:45.041Z,5.50
2018-09-11T02:20:13.510Z,4.50
2018-09-11T02:22:41.801Z,6.13
2018-09-11T02:25:10.131Z,5.40
2018-09-11T02:27:38.470Z,5.15
2018-09-11T02:30:06.910Z,4.53
2018-09-11T02:32:35.293Z,6.05
2018-09-11T02:35:03.664Z,5.37
2018-09-11T02:37:32.041Z,5.87
2018-09-11T02:40:00.380Z,5.13
2018-09-11T02:42:28.758Z,5.83
2018-09-11T02:44:57.134Z,6.87
2018-09-11T02:47:25.533Z,5.53
2018-09-11T02:49:53.865Z,6.10
2018-09-11T02:52:22.234Z,6.67
2018-09-11T02:54:50.786Z,6.47
2018-09-11T02:57:19.138Z,6.57
2018-09-11T02:59:47.493Z,5.90
2018-09-11T03:02:15.892Z,5.50
2018-09-11T03:04:44.249Z,5.43
2018-09-11T03:07:12.567Z,6.23
2018-09-11T03:09:40.937Z,5.50
2018-09-11T03:12:09.292Z,5.57
2018-09-11T03:14:37.601Z,6.27
2018-09-11T03:17:05.990Z,6.57
2018-09-11T03:19:34.334Z,6.55
2018-09-11T03:22:02.646Z,6.78
2018-09-11T03:24:31.007Z,7.70
2018-09-11T03:26:59.341Z,6.60
2018-09-11T03:29:27.621Z,5.60
2018-09-11T03:31:55.943Z,6.47
2018-09-11T03:34:24.299Z,6.17
2018-09-11T03:36:52.629Z,5.83
2018-09-11T03:39:21.027Z,5.97
2018-09-11T03:41:49.426Z,5.37
2018-09-11T03:44:17.909Z,6.20
2018-09-11T03:46:46.164Z,6.95
2018-09-11T03:49:14.481Z,6.13
2018-09-11T03:51:42.806Z,6.30
2018-09-11T03:54:11.102Z,6.57
2018-09-11T03:56:39.474Z,6.00
2018-09-11T03:59:07.756Z,6.60
2018-09-11T04:01:36.795Z,6.40
2018-09-11T04:04:05.207Z,5.90
2018-09-11T04:06:33.556Z,6.87
2018-09-11T04:09:01.918Z,6.77
2018-09-11T04:11:30.239Z,5.87
2018-09-11T04:13:58.546Z,5.83
2018-09-11T04:16:26.898Z,6.07
2018-09-11T04:18:55.222Z,5.27
2018-09-11T04:21:23.551Z,5.83
2018-09-11T04:23:51.859Z,6.43
2018-09-11T04:26:20.294Z,5.73
2018-09-11T04:28:48.672Z,5.83
2018-09-11T04:31:17.056Z,6.57
2018-09-11T04:33:45.432Z,5.63
2018-09-11T04:36:13.829Z,5.00
2018-09-11T04:38:42.171Z,5.63
2018-09-11T04:41:10.527Z,5.20
2018-09-11T04:43:38.730Z,6.13
2018-09-11T04:46:10.856Z,4.43
2018-09-11T04:48:39.719Z,5.80
2018-09-11T04:51:08.063Z,4.83
2018-09-11T04:53:36.795Z,4.97
2018-09-11T04:56:05.180Z,4.67
2018-09-11T04:58:33.598Z,5.43
2018-09-11T05:01:02.011Z,4.90
2018-09-11T05:03:30.420Z,5.13
2018-09-11T05:05:58.969Z,4.53
2018-09-11T05:08:27.319Z,4.85
2018-09-11T05:10:55.826Z,5.27
2018-09-11T05:13:24.218Z,4.97
2018-09-11T05:15:52.581Z,5.23
2018-09-11T05:18:20.966Z,5.30
2018-09-11T05:20:49.276Z,5.10
2018-09-11T05:23:17.619Z,4.80
2018-09-11T05:25:45.976Z,5.07
2018-09-11T05:28:14.262Z,5.13
2018-09-11T05:30:42.617Z,4.93
2018-09-11T05:33:10.946Z,5.07
2018-09-11T05:35:39.265Z,3.67
2018-09-11T05:38:07.841Z,4.37
2018-09-11T05:40:36.132Z,3.87
2018-09-11T05:43:04.524Z,3.77
2018-09-11T05:45:32.760Z,3.97
2018-09-11T05:48:01.065Z,3.40
2018-09-11T05:50:29.419Z,4.20
2018-09-11T05:52:58.941Z,3.13
2018-09-11T05:55:27.277Z,3.47
2018-09-11T05:57:55.654Z,3.62
2018-09-11T06:00:24.059Z,3.70
2018-09-11T06:02:52.429Z,4.40
2018-09-11T06:05:20.753Z,3.30
2018-09-11T06:07:49.070Z,3.47
2018-09-11T06:10:17.462Z,2.65
2018-09-11T06:12:45.842Z,3.58
2018-09-11T06:15:14.200Z,2.77
2018-09-11T06:17:42.613Z,2.77
2018-09-11T06:20:10.775Z,2.58
2018-09-11T06:22:38.908Z,2.92
2018-09-11T06:25:07.096Z,2.35
2018-09-11T06:27:35.248Z,2.87
2018-09-11T06:30:03.732Z,2.55
2018-09-11T06:32:31.851Z,2.22
2018-09-11T06:35:00.154Z,2.45
2018-09-11T06:37:28.755Z,2.55
2018-09-11T06:39:58.670Z,2.92
2018-09-11T06:42:28.390Z,2.98
2018-09-11T06:44:57.777Z,3.60
2018-09-11T06:47:27.285Z,3.52
2018-09-11T06:49:56.051Z,3.40
2018-09-11T06:52:25.081Z,2.60
2018-09-11T06:54:54.169Z,2.72
2018-09-11T06:57:23.057Z,2.87
2018-09-11T06:59:52.606Z,2.65
2018-09-11T07:02:22.110Z,2.72
2018-09-11T07:04:50.341Z,3.62
2018-09-11T07:07:18.623Z,3.15
2018-09-11T07:09:46.996Z,3.08
2018-09-11T07:12:15.378Z,3.70
2018-09-11T07:14:43.775Z,2.85
2018-09-11T07:17:12.123Z,3.75
2018-09-11T07:19:40.546Z,4.12
2018-09-11T07:22:09.054Z,2.80
2018-09-11T07:24:37.645Z,2.60
2018-09-11T07:27:06.061Z,2.80
2018-09-11T07:29:34.548Z,3.85
2018-09-11T07:32:02.926Z,3.75
2018-09-11T07:34:31.288Z,3.12
2018-09-11T07:36:59.590Z,3.22
2018-09-11T07:39:28.017Z,3.35
2018-09-11T07:41:56.383Z,3.10
2018-09-11T07:44:24.775Z,2.80
2018-09-11T07:46:53.132Z,2.83
2018-09-11T07:49:21.483Z,2.15
2018-09-11T07:51:49.819Z,2.58
2018-09-11T07:54:18.299Z,3.05
2018-09-11T07:56:46.644Z,2.08
2018-09-11T07:59:15.073Z,2.25
2018-09-11T08:01:43.441Z,1.82
2018-09-11T08:04:11.773Z,2.62
2018-09-11T08:06:40.149Z,2.67
2018-09-11T08:09:10.584Z,2.02
2018-09-11T08:11:39.005Z,2.62
2018-09-11T08:14:07.567Z,2.70
2018-09-11T08:16:36.022Z,3.58
2018-09-11T08:19:04.534Z,3.47
2018-09-11T08:21:32.993Z,4.78
2018-09-11T08:24:01.384Z,3.95
2018-09-11T08:26:29.780Z,3.55
2018-09-11T08:28:58.115Z,3.40
2018-09-11T08:31:26.483Z,2.42
2018-09-11T08:33:54.863Z,2.72
2018-09-11T08:36:23.265Z,2.92
2018-09-11T08:38:51.608Z,2.60
2018-09-11T08:41:20.023Z,1.70
2018-09-11T08:43:48.450Z,1.57
2018-09-11T08:46:16.781Z,2.10
2018-09-11T08:48:45.207Z,1.62
2018-09-11T08:51:13.566Z,2.17
2018-09-11T08:53:42.338Z,2.05
2018-09-11T08:56:10.641Z,1.98
2018-09-11T08:58:39.022Z,2.67
2018-09-11T09:01:07.573Z,1.57
2018-09-11T09:03:35.924Z,3.17
2018-09-11T09:06:04.336Z,2.37
2018-09-11T09:08:33.703Z,2.47
2018-09-11T09:11:02.013Z,1.87
2018-09-11T09:13:30.372Z,1.85
2018-09-11T09:15:58.740Z,1.77
2018-09-11T09:18:27.113Z,1.32
2018-09-11T09:20:55.537Z,1.52
2018-09-11T09:23:23.832Z,1.35
2018-09-11T09:25:52.132Z,1.82
2018-09-11T09:28:20.460Z,1.52
2018-09-11T09:30:48.749Z,1.65
2018-09-11T09:33:17.043Z,2.00
2018-09-11T09:35:45.407Z,1.85
2018-09-11T09:38:13.761Z,2.20
2018-09-11T09:40:42.147Z,2.33
2018-09-11T09:43:10.562Z,1.85
2018-09-11T09:45:38.916Z,2.22
2018-09-11T09:48:07.283Z,1.70
2018-09-11T09:50:35.606Z,1.82
2018-09-11T09:53:03.941Z,1.52
2018-09-11T09:55:32.250Z,1.60
2018-09-11T09:58:00.590Z,1.77
2018-09-11T10:00:34.355Z,1.98
2018-09-11T10:03:02.656Z,1.42
2018-09-11T10:05:31.011Z,2.70
2018-09-11T10:07:59.297Z,1.65
2018-09-11T10:10:27.620Z,1.50
2018-09-11T10:12:56.014Z,1.37
2018-09-11T10:15:24.493Z,1.45
2018-09-11T10:17:53.147Z,1.30
2018-09-11T10:20:21.666Z,1.20
2018-09-11T10:22:49.998Z,0.85
2018-09-11T10:25:18.471Z,1.15
2018-09-11T10:27:47.230Z,0.90
2018-09-11T10:30:15.931Z,0.75
2018-09-11T10:32:45.658Z,0.90
2018-09-11T10:35:14.429Z,1.02
2018-09-11T10:37:43.100Z,0.85
2018-09-11T10:40:11.763Z,1.05
2018-09-11T10:42:40.298Z,1.07
2018-09-11T10:45:08.965Z,0.75
2018-09-11T10:47:37.335Z,1.02
2018-09-11T10:51:08.508Z,0.88
2018-09-11T10:53:37.821Z,0.62
2018-09-11T10:56:06.634Z,0.72
2018-09-11T10:58:35.351Z,0.90
2018-09-11T11:01:04.833Z,0.82
2018-09-11T11:03:33.558Z,1.00
2018-09-11T11:06:02.325Z,0.82
2018-09-11T11:08:30.905Z,1.27
2018-09-11T11:17:43.634Z,1.15
2018-09-11T11:20:12.164Z,1.35
2018-09-11T11:22:40.650Z,0.90
2018-09-11T11:25:09.219Z,1.65
2018-09-11T11:27:37.835Z,1.70
2018-09-11T11:30:06.152Z,0.98
2018-09-11T11:32:34.367Z,1.30
2018-09-11T11:35:02.776Z,0.90
2018-09-11T11:37:31.161Z,1.17
2018-09-11T11:39:59.503Z,1.10
2018-09-11T11:42:28.030Z,1.30
2018-09-11T11:44:56.211Z,1.40
2018-09-11T11:47:24.972Z,1.30
2018-09-11T11:49:54.649Z,1.00
2018-09-11T11:52:23.413Z,0.70
2018-09-11T11:54:52.193Z,0.90
2018-09-11T11:57:20.975Z,0.90
2018-09-11T11:59:51.122Z,1.77
2018-09-11T12:02:21.966Z,0.78
2018-09-11T12:04:50.989Z,0.82
2018-09-11T12:07:20.041Z,1.00
2018-09-11T12:09:48.759Z,1.17
2018-09-11T12:12:17.440Z,1.00
2018-09-11T12:14:46.340Z,0.90
2018-09-11T12:17:14.993Z,0.72
2018-09-11T12:19:43.735Z,1.00
2018-09-11T12:22:12.565Z,1.40
2018-09-11T12:24:41.238Z,0.88
2018-09-11T12:27:09.566Z,0.88
2018-09-11T12:29:39.917Z,1.07
2018-09-11T12:32:08.286Z,0.95
2018-09-11T12:34:36.598Z,1.35
2018-09-11T12:37:05.039Z,1.07
2018-09-11T12:39:33.495Z,1.17
2018-09-11T12:42:01.836Z,1.35
2018-09-11T12:44:30.524Z,1.05
2018-09-11T12:46:59.225Z,1.10
2018-09-11T12:49:27.523Z,1.20
2018-09-11T12:51:56.005Z,1.20
2018-09-11T12:54:24.638Z,1.17
2018-09-11T12:56:53.404Z,1.27
2018-09-11T12:59:21.888Z,0.93
2018-09-11T13:01:50.087Z,1.45
2018-09-11T13:04:18.225Z,1.10
2018-09-11T13:06:46.376Z,1.20
2018-09-11T13:09:14.566Z,1.20
2018-09-11T13:11:42.780Z,1.20
2018-09-11T13:14:12.013Z,1.10
2018-09-11T13:16:40.251Z,0.82
2018-09-11T13:19:08.430Z,1.42
2018-09-11T13:21:36.572Z,1.05
2018-09-11T13:24:04.796Z,1.02
2018-09-11T13:26:32.968Z,0.95
2018-09-11T13:29:01.133Z,1.65
2018-09-11T13:31:29.368Z,1.02
2018-09-11T13:33:57.662Z,0.95
2018-09-11T13:36:25.978Z,1.52
2018-09-11T13:38:54.113Z,1.00
2018-09-11T13:41:22.351Z,1.00
2018-09-11T13:43:50.531Z,1.07
2018-09-11T13:46:18.669Z,1.02
2018-09-11T13:48:46.788Z,1.37
2018-09-11T13:51:15.016Z,1.42
2018-09-11T13:53:43.177Z,0.90
2018-09-11T13:56:11.577Z,1.05
2018-09-11T13:58:40.726Z,1.20
2018-09-11T14:01:09.080Z,1.70
2018-09-11T14:03:37.284Z,1.35
2018-09-11T14:06:05.553Z,1.10
2018-09-11T14:08:33.908Z,1.40
2018-09-11T14:11:02.046Z,1.12
2018-09-11T14:13:30.204Z,1.42
2018-09-11T14:15:58.433Z,0.90
2018-09-11T14:18:26.597Z,1.20
2018-09-11T14:20:55.712Z,1.27
2018-09-11T14:23:23.952Z,1.00
2018-09-11T14:25:52.130Z,1.20
2018-09-11T14:28:20.283Z,1.82
2018-09-11T14:30:48.473Z,1.22
2018-09-11T14:33:16.669Z,1.20
2018-09-11T14:35:44.904Z,1.20
2018-09-11T14:38:13.281Z,1.00
2018-09-11T14:40:41.515Z,1.00
2018-09-11T14:43:09.769Z,1.35
2018-09-11T14:45:38.001Z,1.65
2018-09-11T14:48:05.866Z,1.27
2018-09-11T14:50:34.063Z,2.30
2018-09-11T14:53:03.009Z,1.00
2018-09-11T14:55:31.653Z,1.25
2018-09-11T14:57:59.832Z,1.25
2018-09-11T15:00:28.046Z,1.07
2018-09-11T15:02:56.319Z,1.30
2018-09-11T15:05:24.634Z,1.57
2018-09-11T15:07:52.933Z,1.15
2018-09-11T15:10:21.309Z,1.30
2018-09-11T15:12:50.210Z,1.10
2018-09-11T15:15:18.547Z,0.90
2018-09-11T15:17:46.763Z,1.45
2018-09-11T15:20:14.983Z,1.80
2018-09-11T15:22:43.349Z,1.30
2018-09-11T15:25:11.646Z,1.22
2018-09-11T15:27:39.859Z,1.32
2018-09-11T15:30:08.243Z,1.10
2018-09-11T15:32:36.576Z,1.27
2018-09-11T15:35:04.925Z,1.22
2018-09-11T15:37:33.179Z,1.02
2018-09-11T15:40:01.474Z,1.00
2018-09-11T15:42:30.767Z,1.00
2018-09-11T15:44:58.884Z,1.35
2018-09-11T15:47:27.149Z,1.15
2018-09-11T15:49:55.314Z,1.10
2018-09-11T15:52:23.516Z,1.10
2018-09-11T15:54:51.687Z,1.50
2018-09-11T15:57:19.885Z,1.55
2018-09-11T15:59:48.089Z,1.22
2018-09-11T16:02:16.494Z,1.42
2018-09-11T16:04:44.854Z,1.45
2018-09-11T16:07:13.143Z,1.20
2018-09-11T16:09:41.386Z,1.75
2018-09-11T16:12:09.553Z,1.70
2018-09-11T16:14:37.816Z,1.20
2018-09-11T16:17:06.721Z,1.45
2018-09-11T16:19:35.320Z,1.10
2018-09-11T16:22:03.818Z,1.55
2018-09-11T16:24:32.238Z,1.40
2018-09-11T16:27:00.578Z,1.62
2018-09-11T16:29:28.963Z,1.37
2018-09-11T16:31:57.385Z,2.45
2018-09-11T16:34:25.807Z,1.20
2018-09-11T16:36:54.203Z,1.40
2018-09-11T16:39:22.434Z,1.47
2018-09-11T16:41:50.676Z,1.70
2018-09-11T16:44:18.915Z,1.37
2018-09-11T16:46:49.209Z,1.70
2018-09-11T16:49:17.479Z,1.87
2018-09-11T16:51:45.746Z,1.65
2018-09-11T16:54:13.990Z,1.42
2018-09-11T16:56:42.310Z,2.35
2018-09-11T16:59:10.569Z,2.12
2018-09-11T17:01:38.856Z,1.60
2018-09-11T17:04:07.159Z,1.60
2018-09-11T17:06:35.448Z,1.55
2018-09-11T17:09:05.833Z,2.55
2018-09-11T17:11:34.067Z,2.12
2018-09-11T17:14:02.308Z,1.95
2018-09-11T17:16:30.584Z,1.90
2018-09-11T17:18:58.838Z,2.05
2018-09-11T17:21:26.959Z,2.27
2018-09-11T17:24:00.929Z,2.22
2018-09-11T17:26:29.892Z,2.40
2018-09-11T17:28:58.027Z,2.17
2018-09-11T17:31:26.207Z,1.98
2018-09-11T17:33:54.345Z,2.30
2018-09-11T17:36:22.620Z,2.35
2018-09-11T17:38:50.815Z,2.40
2018-09-11T17:41:19.041Z,2.02
2018-09-11T17:43:47.219Z,2.42
2018-09-11T17:46:15.423Z,1.90
2018-09-11T17:48:43.814Z,2.33
2018-09-11T17:51:12.174Z,2.50
2018-09-11T17:53:40.357Z,2.27
2018-09-11T17:56:08.675Z,3.00
2018-09-11T17:58:36.934Z,2.60
2018-09-11T18:01:05.133Z,1.98
2018-09-11T18:03:33.299Z,2.35
2018-09-11T18:06:01.461Z,3.12
2018-09-11T18:08:29.824Z,3.27
2018-09-11T18:10:58.016Z,3.42
2018-09-11T18:13:26.228Z,3.35
2018-09-11T18:15:54.359Z,2.92
2018-09-11T18:18:22.562Z,3.08
2018-09-11T18:20:50.762Z,3.40
2018-09-11T18:23:19.000Z,2.83
2018-09-11T18:25:47.368Z,3.17
2018-09-11T18:28:15.598Z,3.05
2018-09-11T18:30:43.775Z,2.90
2018-09-11T18:33:12.088Z,3.58
2018-09-11T18:35:40.310Z,2.98
2018-09-11T18:38:08.559Z,2.90
2018-09-11T18:40:36.754Z,3.47
2018-09-11T18:43:05.019Z,3.30
2018-09-11T18:45:33.232Z,2.65
2018-09-11T18:48:09.451Z,3.25
2018-09-11T18:50:43.204Z,3.25
2018-09-11T18:53:16.547Z,3.92
2018-09-11T18:55:49.425Z,3.17
2018-09-11T18:58:21.870Z,3.27
2018-09-11T19:01:03.147Z,3.22
2018-09-11T19:03:39.660Z,3.52
2018-09-11T19:06:16.257Z,3.50
2018-09-11T19:08:53.571Z,3.40
2018-09-11T19:11:24.907Z,3.70
2018-09-11T19:13:54.142Z,3.92
2018-09-11T19:16:23.204Z,4.47
2018-09-11T19:18:53.780Z,3.98
2018-09-11T19:21:22.945Z,4.35
2018-09-11T19:23:52.451Z,3.87
2018-09-11T19:26:21.765Z,3.98
2018-09-11T19:28:51.011Z,4.35
2018-09-11T19:31:20.919Z,4.00
2018-09-11T19:33:50.140Z,4.20
2018-09-11T19:36:19.322Z,4.00
2018-09-11T19:38:48.240Z,4.20
2018-09-11T19:41:18.521Z,4.00
2018-09-11T19:43:49.049Z,4.05
2018-09-11T19:46:20.738Z,3.90
2018-09-11T19:48:50.435Z,3.92
2018-09-11T19:51:20.766Z,4.12
2018-09-11T19:53:52.200Z,3.85
2018-09-11T19:56:23.953Z,3.87
2018-09-11T19:58:55.875Z,3.95
2018-09-11T20:01:26.851Z,4.85
2018-09-11T20:03:55.524Z,3.85
2018-09-11T20:06:23.645Z,4.35
2018-09-11T20:08:51.883Z,4.58
2018-09-11T20:11:20.187Z,4.40
2018-09-11T20:13:48.565Z,4.53
2018-09-11T20:16:16.751Z,4.08
2018-09-11T20:18:45.242Z,4.10
2018-09-11T20:21:13.507Z,4.47
2018-09-11T20:23:41.830Z,5.12
2018-09-11T20:26:10.247Z,4.47
2018-09-11T20:28:39.578Z,4.70
2018-09-11T20:31:07.756Z,4.25
2018-09-11T20:33:36.009Z,5.75
2018-09-11T20:36:04.452Z,4.35
2018-09-11T20:38:32.602Z,4.33
2018-09-11T20:41:00.763Z,5.12
2018-09-11T20:43:28.947Z,5.90
2018-09-11T20:45:57.168Z,6.28
2018-09-11T20:48:25.508Z,5.25
2018-09-11T20:50:53.793Z,5.40
2018-09-11T20:53:21.903Z,5.15
2018-09-11T20:55:50.211Z,6.05
2018-09-11T20:58:18.304Z,5.15
2018-09-11T21:00:46.433Z,5.83
2018-09-11T21:03:14.578Z,5.25
2018-09-11T21:05:42.719Z,5.30
2018-09-11T21:08:10.911Z,5.60
2018-09-11T21:10:39.111Z,6.03
2018-09-11T21:13:07.385Z,5.78
2018-09-11T21:15:35.533Z,5.83
2018-09-11T21:18:03.760Z,5.78
2018-09-11T21:20:31.971Z,5.12
2018-09-11T21:23:00.244Z,5.95
2018-09-11T21:25:28.480Z,6.22
2018-09-11T21:27:56.694Z,6.15
2018-09-11T21:30:24.828Z,5.87
2018-09-11T21:32:53.145Z,6.50
2018-09-11T21:35:21.409Z,5.75
2018-09-11T21:37:49.682Z,5.97
2018-09-11T21:40:17.928Z,6.00
2018-09-11T21:42:46.194Z,5.55
2018-09-11T21:45:14.380Z,5.75
2018-09-11T21:47:42.509Z,5.67
2018-09-11T21:50:10.769Z,5.85
2018-09-11T21:52:56.863Z,5.15
2018-09-11T21:56:04.733Z,5.60
2018-09-11T22:04:08.324Z,5.00
2018-09-11T22:06:36.440Z,6.12
2018-09-11T22:09:07.578Z,6.72
2018-09-11T22:11:35.752Z,6.75
2018-09-11T22:14:04.061Z,6.85
2018-09-11T22:16:32.385Z,5.58
2018-09-11T22:19:01.822Z,6.55
2018-09-11T22:21:30.123Z,7.30
2018-09-11T22:23:58.419Z,6.33
2018-09-11T22:26:26.768Z,6.80
2018-09-11T22:28:55.266Z,6.17
2018-09-11T22:31:23.587Z,6.37
2018-09-11T22:33:51.910Z,6.12
2018-09-11T22:36:20.214Z,6.55
2018-09-11T22:38:48.513Z,5.70
2018-09-11T22:41:16.880Z,5.95
2018-09-11T22:43:45.356Z,6.90
2018-09-11T22:46:13.906Z,6.12
2018-09-11T22:48:42.241Z,5.15
2018-09-11T22:51:10.645Z,5.67
2018-09-11T22:53:38.972Z,6.15
2018-09-11T22:56:10.244Z,5.95
2018-09-11T22:58:40.683Z,5.92
2018-09-11T23:01:11.155Z,5.60
2018-09-11T23:03:41.476Z,5.70
2018-09-11T23:06:11.881Z,6.05
2018-09-11T23:08:41.744Z,5.78
2018-09-11T23:11:12.505Z,5.50
2018-09-11T23:13:41.886Z,5.60
2018-09-11T23:16:11.163Z,5.37
2018-09-11T23:18:40.472Z,5.65
2018-09-11T23:21:10.083Z,6.60
2018-09-11T23:23:40.594Z,6.05
2018-09-11T23:26:10.177Z,6.35
2018-09-11T23:28:40.293Z,6.58
2018-09-11T23:31:10.780Z,6.15
2018-09-11T23:33:41.356Z,8.25
2018-09-11T23:36:09.721Z,6.67
2018-09-11T23:38:37.877Z,7.37
2018-09-11T23:41:06.177Z,7.97
2018-09-11T23:43:34.365Z,8.83
2018-09-11T23:46:02.460Z,9.23
2018-09-11T23:48:30.658Z,9.00
2018-09-11T23:50:58.924Z,9.48
2018-09-11T23:53:27.045Z,10.23
2018-09-11T23:55:55.218Z,8.90
2018-09-11T23:58:23.460Z,8.80
